METAR AND TAF INFORMATION
METAR FOR EPKK
ADDS - METARS form results

(1438 UTC 18 January 2019)
Data provider http://aviationweather.gov/metar/data/
 
METAR text: EPKK 181430Z 28013KT 9999 -SHSN SCT020CB BKN045 01/M02 Q1015 R25/41//95
Conditions at: EPKK (KRAKOW/BALICE , PL) observed 1430 UTC 18 January 2019
Temperature: 1.0°C (34°F)
Dewpoint: -2.0°C (28°F) [RH = 80%]
Pressure (altimeter): 29.97 inches Hg (1015.0 mb)
Winds: from the W (280 degrees) at 15 MPH (13 knots; 6.7 m/s)
Visibility: 6 or more miles (10+ km)
Ceiling: 4500 feet AGL
Clouds: scattered clouds at 2000 feet AGL
broken clouds at 4500 feet AGL
Weather: -SHSN  (light snow showers)

METAR text: EPKK 181400Z 27014KT 9999 FEW025CB BKN040 01/M02 Q1014 R25/41//95
Conditions at: EPKK (KRAKOW/BALICE , PL) observed 1400 UTC 18 January 2019
Temperature: 1.0°C (34°F)
Dewpoint: -2.0°C (28°F) [RH = 80%]
Pressure (altimeter): 29.94 inches Hg (1014.0 mb)
Winds: from the W (270 degrees) at 16 MPH (14 knots; 7.2 m/s)
Visibility: 6 or more miles (10+ km)
Ceiling: 4000 feet AGL
Clouds: few clouds at 2500 feet AGL
broken clouds at 4000 feet AGL
Weather: no significant weather observed at this time

Forecast for: EPKK (KRAKOW/BALICE , PL)
Text: TAF EPKK 181430Z 1815/1915 27011KT 7000 BKN025
Forecast period: 1500 UTC 18 January 2019 to 1500 UTC 19 January 2019
Forecast type: FROM: standard forecast or significant change
Winds: from the W (270 degrees) at 13 MPH (11 knots; 5.7 m/s)
Visibility: 4 miles (7 km)
Ceiling: 2500 feet AGL
Clouds: broken clouds at 2500 feet AGL
Weather: no significant weather forecast for this period
Text: TEMPO 1815/1818 2000 SHSN BKN005 BKN014CB
Forecast period: 1500 to 1800 UTC 18 January 2019
Forecast type: TEMPORARY: The following changes expected for less than half the time period
Visibility: 1.24 miles (2.00 km)
Ceiling: 500 feet AGL
Clouds: broken clouds at 500 feet AGL
broken clouds at 1400 feet AGL
Weather: SHSN  (snow showers)
Text: TEMPO 1821/1910 2000 BR
Forecast period: 2100 UTC 18 January 2019 to 1000 UTC 19 January 2019
Forecast type: TEMPORARY: The following changes expected for less than half the time period
Visibility: 1.24 miles (2.00 km)
Ceiling: unknown
Clouds: missing
Weather: BR  (mist)

 AIRPORT MAP

 RUNWAY INFORMATION
Runway 07 Runway length 8366 ft Runway width 197 ft
Runway elevation 792 ft Runway displaced threshold 0 ft Runway heading 78
Runway 25 Runway length 8366 ft Runway width 197 ft
Runway elevation 779 ft Runway displaced threshold 784 ft Runway heading 258

 AIRPORT FREQUENCIES
Type APP Name KRAKOW APP Frequency 121.075 MHZ
Type ATIS Name ATIS Frequency 126.125 MHZ
Type DIR Name KRAKOW DIR Frequency 123.8 MHZ
Type TWR Name KRAKOW DEL Frequency 118.1 MHZ
Type TWR Name KRAKOW TWR Frequency 123.25 MHZ

 AIRPORT NEAR NAVIGATION AIDS
Type NDB Name Krakow Frequency 353 KHZ



Powered by Virtual Airlines Manager [v2.6.1]